LPA weather

Gran Canaria Airport
Gran Canaria Island, Canary Islands, Spain

Public forecast

Using degrees Celsius for public forecast. Weather courtesy of forecast.io.

Current aviation weather report (METAR) for Gran Canaria Airport

Retrieved 2020/04/03 06:30 UTC (10 minutes ago):

GCLP 030630Z 30004KT 270V340 9999 FEW020 16/12 Q1013 BECMG 15010KT

Aviation forecast (TAF) for Gran Canaria Airport

Retrieved 2020-04-03 03:29 UTC (3 hours ago):

TAF GCLP 030200Z 0303/0403 27006KT 9999 SCT025 TX23/0315Z TN15/0306Z BECMG 0308/0310 15010KT PROB30 TEMPO 0313/0315 16017G27KT PROB40 TEMPO 0315/0317 36014KT BECMG 0320/0322 27004KT